sensor_id;sensor_type;location;lat;lon;timestamp;pressure;altitude;pressure_sealevel;temperature;humidity
54439;BME280;40347;53.848;27.498;2023-04-10T00:01:08;1020.8;;;10.2;66.2
54439;BME280;40347;53.848;27.498;2023-04-10T00:05:56;1020.8;;;10.2;66.2
54439;BME280;40347;53.848;27.498;2023-04-10T00:11:12;1020.8;;;10;66.7
54439;BME280;40347;53.848;27.498;2023-04-10T00:16:06;1020.8;;;9.9;67.3
54439;BME280;40347;53.848;27.498;2023-04-10T00:20:56;1020.8;;;9.9;67.6
54439;BME280;40347;53.848;27.498;2023-04-10T00:26:18;1020.8;;;9.8;67.5
54439;BME280;40347;53.848;27.498;2023-04-10T00:31:04;1020.8;;;9.8;67.3
54439;BME280;40347;53.848;27.498;2023-04-10T00:36:10;1020.9;;;9.8;67.1
54439;BME280;40347;53.848;27.498;2023-04-10T00:40:56;1020.9;;;9.8;67.4
54439;BME280;40347;53.848;27.498;2023-04-10T00:46:16;1020.9;;;9.7;67.4
54439;BME280;40347;53.848;27.498;2023-04-10T00:50:56;1021;;;9.7;67.9
54439;BME280;40347;53.848;27.498;2023-04-10T00:55:56;1021;;;9.5;68.5
54439;BME280;40347;53.848;27.498;2023-04-10T01:01:10;1021;;;9.3;68.9
54439;BME280;40347;53.848;27.498;2023-04-10T01:06:11;1021;;;9.3;69.2
54439;BME280;40347;53.848;27.498;2023-04-10T01:10:57;1021;;;9.2;69.6
54439;BME280;40347;53.848;27.498;2023-04-10T01:16:09;1021.1;;;9.2;69.7
54439;BME280;40347;53.848;27.498;2023-04-10T01:21:04;1021.1;;;9.3;69
54439;BME280;40347;53.848;27.498;2023-04-10T01:26:12;1021.1;;;9.4;68.4
54439;BME280;40347;53.848;27.498;2023-04-10T01:31:18;1021.1;;;9.4;68
54439;BME280;40347;53.848;27.498;2023-04-10T01:35:56;1021.1;;;9.5;67.9
54439;BME280;40347;53.848;27.498;2023-04-10T01:41:18;1021.1;;;9.5;67.8
54439;BME280;40347;53.848;27.498;2023-04-10T01:45:56;1021.1;;;9.5;67.6
54439;BME280;40347;53.848;27.498;2023-04-10T01:50:56;1021.1;;;9.4;67.8
54439;BME280;40347;53.848;27.498;2023-04-10T01:56:08;1021.1;;;9.3;68.4
54439;BME280;40347;53.848;27.498;2023-04-10T02:01:08;1021.1;;;9.1;69
54439;BME280;40347;53.848;27.498;2023-04-10T02:06:07;1021;;;9.1;69.6
54439;BME280;40347;53.848;27.498;2023-04-10T02:10:57;1021.1;;;9.1;69.4
54439;BME280;40347;53.848;27.498;2023-04-10T02:15:56;1021.1;;;9.1;69
54439;BME280;40347;53.848;27.498;2023-04-10T02:21:08;1021.1;;;9.1;68.9
54439;BME280;40347;53.848;27.498;2023-04-10T02:26:05;1021.1;;;9.1;69.3
54439;BME280;40347;53.848;27.498;2023-04-10T02:31:18;1021.1;;;8.9;69.7
54439;BME280;40347;53.848;27.498;2023-04-10T02:36:20;1021.1;;;8.9;70
54439;BME280;40347;53.848;27.498;2023-04-10T02:40:56;1021.1;;;8.8;70.2
54439;BME280;40347;53.848;27.498;2023-04-10T02:45:56;1021.2;;;8.7;70.2
54439;BME280;40347;53.848;27.498;2023-04-10T02:50:56;1021.2;;;8.6;70.2
54439;BME280;40347;53.848;27.498;2023-04-10T02:56:08;1021.2;;;8.6;70.1
54439;BME280;40347;53.848;27.498;2023-04-10T03:00:56;1021.2;;;8.6;69.9
54439;BME280;40347;53.848;27.498;2023-04-10T03:06:12;1021.2;;;8.7;69.2
54439;BME280;40347;53.848;27.498;2023-04-10T03:11:18;1021.1;;;8.6;69.3
54439;BME280;40347;53.848;27.498;2023-04-10T03:16:04;1021.1;;;8.4;69.5
54439;BME280;40347;53.848;27.498;2023-04-10T03:20:56;1021.1;;;8.5;69.3
54439;BME280;40347;53.848;27.498;2023-04-10T03:26:12;1021.1;;;8.5;69.4
54439;BME280;40347;53.848;27.498;2023-04-10T03:31:18;1021.1;;;8.4;69.6
54439;BME280;40347;53.848;27.498;2023-04-10T03:36:18;1021.1;;;8.6;68.7
54439;BME280;40347;53.848;27.498;2023-04-10T03:40:56;1021.1;;;8.6;68.6
54439;BME280;40347;53.848;27.498;2023-04-10T03:45:56;1021.1;;;8.5;68.5
54439;BME280;40347;53.848;27.498;2023-04-10T03:51:44;1021.1;;;8.5;68.6
54439;BME280;40347;53.848;27.498;2023-04-10T03:55:56;1021.1;;;8.6;68.7
54439;BME280;40347;53.848;27.498;2023-04-10T04:00:56;1021.1;;;8.7;68.3
54439;BME280;40347;53.848;27.498;2023-04-10T04:06:04;1021.2;;;8.9;67.6
54439;BME280;40347;53.848;27.498;2023-04-10T04:11:18;1021.2;;;9.1;67.3
54439;BME280;40347;53.848;27.498;2023-04-10T04:16:02;1021.2;;;9.2;66.7
54439;BME280;40347;53.848;27.498;2023-04-10T04:21:12;1021.3;;;9.4;66.1
54439;BME280;40347;53.848;27.498;2023-04-10T04:25:56;1021.2;;;9.8;65.5
54439;BME280;40347;53.848;27.498;2023-04-10T04:31:06;1021.2;;;10.1;64.5
54439;BME280;40347;53.848;27.498;2023-04-10T04:35:56;1021.2;;;10.3;63.5
54439;BME280;40347;53.848;27.498;2023-04-10T04:41:10;1021.3;;;10.4;63.1
54439;BME280;40347;53.848;27.498;2023-04-10T04:45:56;1021.3;;;10.4;62.6
54439;BME280;40347;53.848;27.498;2023-04-10T04:50:56;1021.3;;;10.6;62.4
54439;BME280;40347;53.848;27.498;2023-04-10T04:56:08;1021.3;;;11.1;61.2
54439;BME280;40347;53.848;27.498;2023-04-10T05:00:56;1021.3;;;11.1;60.2
54439;BME280;40347;53.848;27.498;2023-04-10T05:06:02;1021.4;;;11;60.8
54439;BME280;40347;53.848;27.498;2023-04-10T05:10:56;1021.4;;;11.1;60.8
54439;BME280;40347;53.848;27.498;2023-04-10T05:16:02;1021.4;;;11.1;60.8
54439;BME280;40347;53.848;27.498;2023-04-10T05:20:56;1021.5;;;11.3;60.7
54439;BME280;40347;53.848;27.498;2023-04-10T05:26:06;1021.5;;;11.6;60.4
54439;BME280;40347;53.848;27.498;2023-04-10T05:31:18;1021.5;;;12.1;60
54439;BME280;40347;53.848;27.498;2023-04-10T05:36:12;1021.6;;;12.5;59
54439;BME280;40347;53.848;27.498;2023-04-10T05:41:18;1021.6;;;12.8;58.2
54439;BME280;40347;53.848;27.498;2023-04-10T05:46:08;1021.6;;;13;57.9
54439;BME280;40347;53.848;27.498;2023-04-10T05:51:16;1021.6;;;13.4;57.4
54439;BME280;40347;53.848;27.498;2023-04-10T05:55:56;1021.6;;;13.9;56.6
54439;BME280;40347;53.848;27.498;2023-04-10T06:01:20;1021.6;;;14.3;55.4
54439;BME280;40347;53.848;27.498;2023-04-10T06:05:56;1021.6;;;14.4;54.3
54439;BME280;40347;53.848;27.498;2023-04-10T06:11:16;1021.6;;;14.6;53.9
54439;BME280;40347;53.848;27.498;2023-04-10T06:16:04;1021.6;;;14.6;54.2
54439;BME280;40347;53.848;27.498;2023-04-10T06:20:56;1021.6;;;14.7;53.7
54439;BME280;40347;53.848;27.498;2023-04-10T06:26:12;1021.7;;;14.9;52.7
54439;BME280;40347;53.848;27.498;2023-04-10T06:31:02;1021.7;;;15;52.4
54439;BME280;40347;53.848;27.498;2023-04-10T06:35:57;1021.7;;;15.1;52.1
54439;BME280;40347;53.848;27.498;2023-04-10T06:41:08;1021.7;;;15.4;52.2
54439;BME280;40347;53.848;27.498;2023-04-10T06:45:56;1021.7;;;15.7;51.6
54439;BME280;40347;53.848;27.498;2023-04-10T06:50:56;1021.8;;;16;50.4
54439;BME280;40347;53.848;27.498;2023-04-10T06:56:12;1021.8;;;16.2;50.2
54439;BME280;40347;53.848;27.498;2023-04-10T07:01:08;1021.8;;;16.4;49.8
54439;BME280;40347;53.848;27.498;2023-04-10T07:06:06;1021.8;;;16.5;49.5
54439;BME280;40347;53.848;27.498;2023-04-10T07:11:02;1021.8;;;16.7;47.9
54439;BME280;40347;53.848;27.498;2023-04-10T07:15:56;1021.8;;;16.7;48.4
54439;BME280;40347;53.848;27.498;2023-04-10T07:20:56;1021.8;;;16.7;47.3
54439;BME280;40347;53.848;27.498;2023-04-10T07:25:56;1021.8;;;16.7;46.5
54439;BME280;40347;53.848;27.498;2023-04-10T07:31:18;1021.8;;;16.8;46.9
54439;BME280;40347;53.848;27.498;2023-04-10T07:35:56;1021.8;;;16.9;45.9
54439;BME280;40347;53.848;27.498;2023-04-10T07:41:12;1021.7;;;17;46.6
54439;BME280;40347;53.848;27.498;2023-04-10T07:46:02;1021.7;;;17.1;45.3
54439;BME280;40347;53.848;27.498;2023-04-10T07:51:04;1021.8;;;17.3;44.3
54439;BME280;40347;53.848;27.498;2023-04-10T07:55:56;1021.8;;;17.4;42.9
54439;BME280;40347;53.848;27.498;2023-04-10T08:00:56;1021.8;;;17.4;42.9
54439;BME280;40347;53.848;27.498;2023-04-10T08:06:10;1021.8;;;17.6;43.2
54439;BME280;40347;53.848;27.498;2023-04-10T08:11:02;1021.8;;;17.7;42.6
54439;BME280;40347;53.848;27.498;2023-04-10T08:16:06;1021.7;;;17.6;42.3
54439;BME280;40347;53.848;27.498;2023-04-10T08:20:56;1021.7;;;17.6;40.6
54439;BME280;40347;53.848;27.498;2023-04-10T08:26:02;1021.7;;;17.6;41
54439;BME280;40347;53.848;27.498;2023-04-10T08:30:56;1021.7;;;17.8;41.3
54439;BME280;40347;53.848;27.498;2023-04-10T08:35:56;1021.6;;;18;40.6
54439;BME280;40347;53.848;27.498;2023-04-10T08:40:56;1021.6;;;18.1;39.8
54439;BME280;40347;53.848;27.498;2023-04-10T08:45:56;1021.6;;;18.1;39.2
54439;BME280;40347;53.848;27.498;2023-04-10T08:51:12;1021.5;;;18;37.7
54439;BME280;40347;53.848;27.498;2023-04-10T08:56:08;1021.5;;;18;37.6
54439;BME280;40347;53.848;27.498;2023-04-10T09:01:03;1021.5;;;18.1;37.7
54439;BME280;40347;53.848;27.498;2023-04-10T09:06:06;1021.5;;;18.1;38.2
54439;BME280;40347;53.848;27.498;2023-04-10T09:11:08;1021.5;;;18.2;36.9
54439;BME280;40347;53.848;27.498;2023-04-10T09:16:00;1021.5;;;18.3;36.5
54439;BME280;40347;53.848;27.498;2023-04-10T09:21:22;1021.4;;;18.4;37.1
54439;BME280;40347;53.848;27.498;2023-04-10T09:26:00;1021.4;;;18.5;36.7
54439;BME280;40347;53.848;27.498;2023-04-10T09:31:09;1021.3;;;18.5;36.8
54439;BME280;40347;53.848;27.498;2023-04-10T09:36:02;1021.3;;;18.6;36.2
54439;BME280;40347;53.848;27.498;2023-04-10T09:41:04;1021.3;;;18.6;35.4
54439;BME280;40347;53.848;27.498;2023-04-10T09:45:56;1021.3;;;18.6;35.4
54439;BME280;40347;53.848;27.498;2023-04-10T09:50:56;1021.3;;;18.5;34.9
54439;BME280;40347;53.848;27.498;2023-04-10T09:56:06;1021.3;;;18.5;35.9
54439;BME280;40347;53.848;27.498;2023-04-10T10:01:02;1021.2;;;18.6;36
54439;BME280;40347;53.848;27.498;2023-04-10T10:06:00;1021.3;;;18.6;35.6
54439;BME280;40347;53.848;27.498;2023-04-10T10:10:56;1021.2;;;18.6;34.6
54439;BME280;40347;53.848;27.498;2023-04-10T10:15:57;1021.2;;;18.6;35.1
54439;BME280;40347;53.848;27.498;2023-04-10T10:21:08;1021.2;;;18.7;35.5
54439;BME280;40347;53.848;27.498;2023-04-10T10:26:37;1021.2;;;18.8;35.6
54439;BME280;40347;53.848;27.498;2023-04-10T10:30:56;1021.2;;;18.9;35.6
54439;BME280;40347;53.848;27.498;2023-04-10T10:36:12;1021.2;;;18.8;35.5
54439;BME280;40347;53.848;27.498;2023-04-10T10:41:12;1021.1;;;18.6;35.7
54439;BME280;40347;53.848;27.498;2023-04-10T10:46:28;1021.1;;;18.6;35.4
54439;BME280;40347;53.848;27.498;2023-04-10T10:50:56;1021;;;18.6;35.9
54439;BME280;40347;53.848;27.498;2023-04-10T10:55:56;1021;;;18.7;36
54439;BME280;40347;53.848;27.498;2023-04-10T11:01:04;1021;;;18.9;35.9
54439;BME280;40347;53.848;27.498;2023-04-10T11:05:57;1020.9;;;18.9;35.5
54439;BME280;40347;53.848;27.498;2023-04-10T11:10:58;1020.9;;;19;35.1
54439;BME280;40347;53.848;27.498;2023-04-10T11:16:18;1020.8;;;19.1;35.3
54439;BME280;40347;53.848;27.498;2023-04-10T11:21:07;1020.8;;;19.2;34.8
54439;BME280;40347;53.848;27.498;2023-04-10T11:25:56;1020.8;;;19.3;35.4
54439;BME280;40347;53.848;27.498;2023-04-10T11:31:12;1020.7;;;19.6;35.4
54439;BME280;40347;53.848;27.498;2023-04-10T11:36:06;1020.7;;;19.6;35.1
54439;BME280;40347;53.848;27.498;2023-04-10T11:41:04;1020.6;;;19.7;35.1
54439;BME280;40347;53.848;27.498;2023-04-10T11:45:58;1020.6;;;19.9;35.5
54439;BME280;40347;53.848;27.498;2023-04-10T11:50:56;1020.6;;;20;35.2
54439;BME280;40347;53.848;27.498;2023-04-10T11:56:02;1020.5;;;20.1;35.1
54439;BME280;40347;53.848;27.498;2023-04-10T12:01:08;1020.5;;;20.3;34.5
54439;BME280;40347;53.848;27.498;2023-04-10T12:06:09;1020.4;;;20.4;34.7
54439;BME280;40347;53.848;27.498;2023-04-10T12:11:02;1020.4;;;20.3;34.8
54439;BME280;40347;53.848;27.498;2023-04-10T12:15:57;1020.3;;;20.3;35
54439;BME280;40347;53.848;27.498;2023-04-10T12:20:56;1020.3;;;20.4;35.6
54439;BME280;40347;53.848;27.498;2023-04-10T12:26:13;1020.2;;;20.5;34.8
54439;BME280;40347;53.848;27.498;2023-04-10T12:31:28;1020.2;;;20.5;35.1
54439;BME280;40347;53.848;27.498;2023-04-10T12:35:56;1020.1;;;20.5;34.2
54439;BME280;40347;53.848;27.498;2023-04-10T12:41:36;1020;;;20.9;34.4
54439;BME280;40347;53.848;27.498;2023-04-10T12:46:00;1020;;;21.3;34.3
54439;BME280;40347;53.848;27.498;2023-04-10T12:51:08;1019.9;;;21.7;33.5
54439;BME280;40347;53.848;27.498;2023-04-10T12:56:08;1019.8;;;22;32.4
54439;BME280;40347;53.848;27.498;2023-04-10T13:00:58;1019.7;;;22.1;32.4
54439;BME280;40347;53.848;27.498;2023-04-10T13:05:56;1019.7;;;21.8;32.6
54439;BME280;40347;53.848;27.498;2023-04-10T13:11:14;1019.7;;;21.2;32.7
54439;BME280;40347;53.848;27.498;2023-04-10T13:16:15;1019.6;;;20.8;33.7
54439;BME280;40347;53.848;27.498;2023-04-10T13:20:56;1019.6;;;20.6;33.7
54439;BME280;40347;53.848;27.498;2023-04-10T13:26:08;1019.5;;;20.5;33.4
54439;BME280;40347;53.848;27.498;2023-04-10T13:31:06;1019.5;;;20.4;33.9
54439;BME280;40347;53.848;27.498;2023-04-10T13:35:56;1019.5;;;20.3;33.7
54439;BME280;40347;53.848;27.498;2023-04-10T13:40:56;1019.5;;;20.3;34
54439;BME280;40347;53.848;27.498;2023-04-10T13:46:08;1019.5;;;20.4;33.7
54439;BME280;40347;53.848;27.498;2023-04-10T13:51:06;1019.4;;;20.5;33.7
54439;BME280;40347;53.848;27.498;2023-04-10T13:56:10;1019.4;;;20.7;33.5
54439;BME280;40347;53.848;27.498;2023-04-10T14:01:00;1019.4;;;20.9;32.9
54439;BME280;40347;53.848;27.498;2023-04-10T14:06:16;1019.3;;;21.2;33.4
54439;BME280;40347;53.848;27.498;2023-04-10T14:11:08;1019.3;;;21.4;33.5
54439;BME280;40347;53.848;27.498;2023-04-10T14:16:08;1019.3;;;21.5;33.5
54439;BME280;40347;53.848;27.498;2023-04-10T14:21:10;1019.2;;;21.5;32.8
54439;BME280;40347;53.848;27.498;2023-04-10T14:26:16;1019.2;;;21.3;32.7
54439;BME280;40347;53.848;27.498;2023-04-10T14:30:56;1019.2;;;21.1;33.1
54439;BME280;40347;53.848;27.498;2023-04-10T14:36:20;1019.1;;;20.8;33.1
54439;BME280;40347;53.848;27.498;2023-04-10T14:41:14;1019.1;;;20.5;33.2
54439;BME280;40347;53.848;27.498;2023-04-10T14:46:20;1019.2;;;20.1;33.5
54439;BME280;40347;53.848;27.498;2023-04-10T14:51:14;1019.1;;;19.6;33.9
54439;BME280;40347;53.848;27.498;2023-04-10T14:56:09;1019.1;;;19.3;33.7
54439;BME280;40347;53.848;27.498;2023-04-10T15:01:22;1019.1;;;19.3;34
54439;BME280;40347;53.848;27.498;2023-04-10T15:06:16;1019.1;;;19.4;34.1
54439;BME280;40347;53.848;27.498;2023-04-10T15:11:22;1019;;;19.6;34
54439;BME280;40347;53.848;27.498;2023-04-10T15:15:56;1019;;;19.7;33.5
54439;BME280;40347;53.848;27.498;2023-04-10T15:20:56;1019;;;19.6;33.8
54439;BME280;40347;53.848;27.498;2023-04-10T15:25:56;1019;;;19.4;32.8
54439;BME280;40347;53.848;27.498;2023-04-10T15:30:56;1019;;;19.2;32.8
54439;BME280;40347;53.848;27.498;2023-04-10T15:36:10;1019;;;19;32.4
54439;BME280;40347;53.848;27.498;2023-04-10T15:41:12;1019;;;18.7;32.4
54439;BME280;40347;53.848;27.498;2023-04-10T15:45:57;1019.1;;;18.2;35.2
54439;BME280;40347;53.848;27.498;2023-04-10T15:50:56;1019.2;;;17;39.4
54439;BME280;40347;53.848;27.498;2023-04-10T15:56:31;1019.3;;;16.4;40.4
54439;BME280;40347;53.848;27.498;2023-04-10T16:00:56;1019.3;;;16.3;40.7
54439;BME280;40347;53.848;27.498;2023-04-10T16:05:56;1019.3;;;16;42.4
54439;BME280;40347;53.848;27.498;2023-04-10T16:11:08;1019.3;;;15.7;43.2
54439;BME280;40347;53.848;27.498;2023-04-10T16:15:56;1019.2;;;15.6;43.8
54439;BME280;40347;53.848;27.498;2023-04-10T16:20:56;1019.2;;;15.5;45.1
54439;BME280;40347;53.848;27.498;2023-04-10T16:26:10;1019.2;;;15.5;45.4
54439;BME280;40347;53.848;27.498;2023-04-10T16:31:04;1019.2;;;15.6;45.2
54439;BME280;40347;53.848;27.498;2023-04-10T16:35:56;1019.2;;;15.5;46.3
54439;BME280;40347;53.848;27.498;2023-04-10T16:40:56;1019.2;;;15.6;44.8
54439;BME280;40347;53.848;27.498;2023-04-10T16:46:08;1019.2;;;15.6;45
54439;BME280;40347;53.848;27.498;2023-04-10T16:50:56;1019.2;;;15.6;44.9
54439;BME280;40347;53.848;27.498;2023-04-10T16:56:08;1019.2;;;15.6;44.8
54439;BME280;40347;53.848;27.498;2023-04-10T17:00:56;1019.2;;;15.8;44.3
54439;BME280;40347;53.848;27.498;2023-04-10T17:06:08;1019.2;;;15.8;43.9
54439;BME280;40347;53.848;27.498;2023-04-10T17:10:56;1019.2;;;15.8;43.8
54439;BME280;40347;53.848;27.498;2023-04-10T17:16:22;1019.2;;;15.8;43.9
54439;BME280;40347;53.848;27.498;2023-04-10T17:21:14;1019.2;;;15.8;43.8
54439;BME280;40347;53.848;27.498;2023-04-10T17:26:22;1019.2;;;15.8;43.8
54439;BME280;40347;53.848;27.498;2023-04-10T17:30:56;1019.2;;;15.9;43.5
54439;BME280;40347;53.848;27.498;2023-04-10T17:36:12;1019.2;;;15.9;43.7
54439;BME280;40347;53.848;27.498;2023-04-10T17:40:56;1019.3;;;15.8;43.9
54439;BME280;40347;53.848;27.498;2023-04-10T17:46:14;1019.2;;;15.7;44.3
54439;BME280;40347;53.848;27.498;2023-04-10T17:50:56;1019.2;;;15.7;44.4
54439;BME280;40347;53.848;27.498;2023-04-10T17:55:56;1019.3;;;15.7;44.2
54439;BME280;40347;53.848;27.498;2023-04-10T18:01:08;1019.3;;;15.7;44.1
54439;BME280;40347;53.848;27.498;2023-04-10T18:06:34;1019.2;;;15.6;44.3
54439;BME280;40347;53.848;27.498;2023-04-10T18:10:56;1019.2;;;15.5;44.6
54439;BME280;40347;53.848;27.498;2023-04-10T18:16:10;1019.2;;;15.3;44.9
54439;BME280;40347;53.848;27.498;2023-04-10T18:21:08;1019.2;;;15.3;44.8
54439;BME280;40347;53.848;27.498;2023-04-10T18:25:56;1019.2;;;15.3;45.1
54439;BME280;40347;53.848;27.498;2023-04-10T18:31:10;1019.2;;;15.3;45
54439;BME280;40347;53.848;27.498;2023-04-10T18:35:56;1019.2;;;15.2;45
54439;BME280;40347;53.848;27.498;2023-04-10T18:41:10;1019.2;;;15.2;45.4
54439;BME280;40347;53.848;27.498;2023-04-10T18:45:56;1019.2;;;15.2;45.6
54439;BME280;40347;53.848;27.498;2023-04-10T18:51:04;1019.2;;;15.2;45.5
54439;BME280;40347;53.848;27.498;2023-04-10T18:55:56;1019.2;;;15.1;45.9
54439;BME280;40347;53.848;27.498;2023-04-10T19:00:56;1019.2;;;15.1;46
54439;BME280;40347;53.848;27.498;2023-04-10T19:06:22;1019.2;;;15.1;46.2
54439;BME280;40347;53.848;27.498;2023-04-10T19:11:08;1019.2;;;15.1;46.3
54439;BME280;40347;53.848;27.498;2023-04-10T19:16:08;1019.2;;;15.1;46.4
54439;BME280;40347;53.848;27.498;2023-04-10T19:20:56;1019.2;;;15.1;46.4
54439;BME280;40347;53.848;27.498;2023-04-10T19:25:56;1019.2;;;15;46.8
54439;BME280;40347;53.848;27.498;2023-04-10T19:30:56;1019.2;;;15;46.8
54439;BME280;40347;53.848;27.498;2023-04-10T19:35:56;1019.2;;;14.9;47.1
54439;BME280;40347;53.848;27.498;2023-04-10T19:41:11;1019.1;;;14.8;47.2
54439;BME280;40347;53.848;27.498;2023-04-10T19:45:56;1019.1;;;14.8;47.3
54439;BME280;40347;53.848;27.498;2023-04-10T19:51:14;1019.1;;;14.8;47.3
54439;BME280;40347;53.848;27.498;2023-04-10T19:55:56;1019;;;14.7;47.5
54439;BME280;40347;53.848;27.498;2023-04-10T20:01:22;1019;;;14.7;47.5
54439;BME280;40347;53.848;27.498;2023-04-10T20:05:57;1019;;;14.7;47.5
54439;BME280;40347;53.848;27.498;2023-04-10T20:11:10;1019;;;14.7;47.4
54439;BME280;40347;53.848;27.498;2023-04-10T20:15:56;1019.1;;;14.6;47.7
54439;BME280;40347;53.848;27.498;2023-04-10T20:21:10;1019.2;;;14.6;47.5
54439;BME280;40347;53.848;27.498;2023-04-10T20:26:10;1019.1;;;14.5;47.8
54439;BME280;40347;53.848;27.498;2023-04-10T20:30:56;1019.1;;;14.4;48.2
54439;BME280;40347;53.848;27.498;2023-04-10T20:35:56;1019.1;;;14.4;48.4
54439;BME280;40347;53.848;27.498;2023-04-10T20:40:56;1019.1;;;14.2;48.9
54439;BME280;40347;53.848;27.498;2023-04-10T20:46:00;1019.1;;;14.1;49.1
54439;BME280;40347;53.848;27.498;2023-04-10T20:51:36;1019.1;;;14.1;49.3
54439;BME280;40347;53.848;27.498;2023-04-10T20:56:06;1019;;;13.9;49.8
54439;BME280;40347;53.848;27.498;2023-04-10T21:01:08;1019;;;13.7;50.3
54439;BME280;40347;53.848;27.498;2023-04-10T21:06:16;1019;;;13.6;50.6
54439;BME280;40347;53.848;27.498;2023-04-10T21:10:56;1019;;;13.5;50.7
54439;BME280;40347;53.848;27.498;2023-04-10T21:15:56;1018.9;;;13.5;50.8
54439;BME280;40347;53.848;27.498;2023-04-10T21:21:08;1018.9;;;13.4;50.8
54439;BME280;40347;53.848;27.498;2023-04-10T21:25:56;1018.9;;;13.2;51.1
54439;BME280;40347;53.848;27.498;2023-04-10T21:30:56;1018.9;;;13;51.6
54439;BME280;40347;53.848;27.498;2023-04-10T21:36:10;1018.9;;;13;51.6
54439;BME280;40347;53.848;27.498;2023-04-10T21:41:10;1018.9;;;12.9;51.9
54439;BME280;40347;53.848;27.498;2023-04-10T21:46:26;1018.9;;;12.8;51.8
54439;BME280;40347;53.848;27.498;2023-04-10T21:50:56;1018.8;;;12.8;52
54439;BME280;40347;53.848;27.498;2023-04-10T21:55:56;1018.8;;;12.6;52.3
54439;BME280;40347;53.848;27.498;2023-04-10T22:01:10;1018.8;;;12.4;52.7
54439;BME280;40347;53.848;27.498;2023-04-10T22:06:08;1018.8;;;12.4;53
54439;BME280;40347;53.848;27.498;2023-04-10T22:11:06;1018.8;;;12.3;53.1
54439;BME280;40347;53.848;27.498;2023-04-10T22:16:20;1018.7;;;12.1;53.3
54439;BME280;40347;53.848;27.498;2023-04-10T22:21:04;1018.7;;;11.9;53.6
54439;BME280;40347;53.848;27.498;2023-04-10T22:26:23;1018.7;;;11.8;54
54439;BME280;40347;53.848;27.498;2023-04-10T22:31:12;1018.6;;;11.7;54.4
54439;BME280;40347;53.848;27.498;2023-04-10T22:36:14;1018.6;;;11.7;54.4
54439;BME280;40347;53.848;27.498;2023-04-10T22:41:36;1018.6;;;11.6;54.7
54439;BME280;40347;53.848;27.498;2023-04-10T22:45:56;1018.6;;;11.5;54.8
54439;BME280;40347;53.848;27.498;2023-04-10T22:51:30;1018.5;;;11.5;55.1
54439;BME280;40347;53.848;27.498;2023-04-10T22:55:56;1018.5;;;11.6;55.5
54439;BME280;40347;53.848;27.498;2023-04-10T23:01:02;1018.5;;;11.5;55.6
54439;BME280;40347;53.848;27.498;2023-04-10T23:06:20;1018.4;;;11.7;55.5
54439;BME280;40347;53.848;27.498;2023-04-10T23:10:56;1018.4;;;11.7;55.3
54439;BME280;40347;53.848;27.498;2023-04-10T23:16:22;1018.4;;;11.7;55.5
54439;BME280;40347;53.848;27.498;2023-04-10T23:21:22;1018.3;;;11.8;55.2
54439;BME280;40347;53.848;27.498;2023-04-10T23:25:56;1018.3;;;11.8;55
54439;BME280;40347;53.848;27.498;2023-04-10T23:31:08;1018.3;;;11.9;54.9
54439;BME280;40347;53.848;27.498;2023-04-10T23:36:03;1018.2;;;11.9;54.6
54439;BME280;40347;53.848;27.498;2023-04-10T23:41:08;1018.2;;;12;54.5
54439;BME280;40347;53.848;27.498;2023-04-10T23:45:56;1018.2;;;11.9;54.6
54439;BME280;40347;53.848;27.498;2023-04-10T23:51:03;1018.1;;;11.8;54.8
54439;BME280;40347;53.848;27.498;2023-04-10T23:56:22;1018.1;;;11.8;54.9
